sensor_id;sensor_type;location;lat;lon;timestamp;pressure;altitude;pressure_sealevel;temperature;humidity
59029;BME280;45919;51.420;5.454;2022-12-29T00:00:23;99962.19;;;11.34;89.79
59029;BME280;45919;51.420;5.454;2022-12-29T00:01:25;99952.59;;;11.30;90.13
59029;BME280;45919;51.420;5.454;2022-12-29T00:02:27;99956.94;;;11.29;90.56
59029;BME280;45919;51.420;5.454;2022-12-29T00:03:28;99957.81;;;11.31;90.06
59029;BME280;45919;51.420;5.454;2022-12-29T00:04:30;99950.88;;;11.27;89.67
59029;BME280;45919;51.420;5.454;2022-12-29T00:05:32;99949.97;;;11.28;90.38
59029;BME280;45919;51.420;5.454;2022-12-29T00:06:33;99957.81;;;11.28;90.69
59029;BME280;45919;51.420;5.454;2022-12-29T00:07:35;99960.41;;;11.31;90.28
59029;BME280;45919;51.420;5.454;2022-12-29T00:08:37;99953.47;;;11.30;90.87
59029;BME280;45919;51.420;5.454;2022-12-29T00:09:41;99963.91;;;11.35;90.44
59029;BME280;45919;51.420;5.454;2022-12-29T00:10:43;99963.91;;;11.32;91.28
59029;BME280;45919;51.420;5.454;2022-12-29T00:11:45;99952.59;;;11.28;91.00
59029;BME280;45919;51.420;5.454;2022-12-29T00:12:46;99947.34;;;11.31;91.17
59029;BME280;45919;51.420;5.454;2022-12-29T00:14:09;99948.22;;;11.35;90.86
59029;BME280;45919;51.420;5.454;2022-12-29T00:15:29;99943.88;;;11.31;91.31
59029;BME280;45919;51.420;5.454;2022-12-29T00:16:42;99936.94;;;11.25;92.36
59029;BME280;45919;51.420;5.454;2022-12-29T00:17:44;99942.13;;;11.22;92.85
59029;BME280;45919;51.420;5.454;2022-12-29T00:18:46;99934.31;;;11.20;93.36
59029;BME280;45919;51.420;5.454;2022-12-29T00:19:47;99928.22;;;11.21;93.67
59029;BME280;45919;51.420;5.454;2022-12-29T00:21:16;99927.31;;;11.26;94.31
59029;BME280;45919;51.420;5.454;2022-12-29T00:22:36;99932.56;;;11.24;94.37
59029;BME280;45919;51.420;5.454;2022-12-29T00:23:56;99930.81;;;11.26;94.51
59029;BME280;45919;51.420;5.454;2022-12-29T00:25:29;99917.78;;;11.20;94.68
59029;BME280;45919;51.420;5.454;2022-12-29T00:27:11;99907.22;;;11.40;95.11
59029;BME280;45919;51.420;5.454;2022-12-29T00:28:31;99895.97;;;11.29;95.07
59029;BME280;45919;51.420;5.454;2022-12-29T00:29:51;99909.03;;;11.30;95.42
59029;BME280;45919;51.420;5.454;2022-12-29T00:31:12;99899.47;;;11.23;95.50
59029;BME280;45919;51.420;5.454;2022-12-29T00:32:32;99914.22;;;11.33;95.44
59029;BME280;45919;51.420;5.454;2022-12-29T00:33:52;99903.78;;;11.32;95.48
59029;BME280;45919;51.420;5.454;2022-12-29T00:35:17;99908.13;;;11.36;95.14
59029;BME280;45919;51.420;5.454;2022-12-29T00:36:22;99916.84;;;11.35;95.15
59029;BME280;45919;51.420;5.454;2022-12-29T00:37:27;99913.38;;;11.34;94.97
59029;BME280;45919;51.420;5.454;2022-12-29T00:38:53;99915.09;;;11.37;95.05
59029;BME280;45919;51.420;5.454;2022-12-29T00:40:15;99889.88;;;11.25;94.60
59029;BME280;45919;51.420;5.454;2022-12-29T00:41:35;99909.91;;;11.31;94.45
59029;BME280;45919;51.420;5.454;2022-12-29T00:42:55;99906.41;;;11.30;94.61
59029;BME280;45919;51.420;5.454;2022-12-29T00:44:15;99908.13;;;11.30;95.09
59029;BME280;45919;51.420;5.454;2022-12-29T00:45:17;99899.44;;;11.28;95.36
59029;BME280;45919;51.420;5.454;2022-12-29T00:46:18;99895.09;;;11.23;95.67
59029;BME280;45919;51.420;5.454;2022-12-29T00:47:20;99893.34;;;11.30;95.99
59029;BME280;45919;51.420;5.454;2022-12-29T00:48:22;99877.66;;;11.30;95.83
59029;BME280;45919;51.420;5.454;2022-12-29T00:49:42;99888.97;;;11.34;95.46
59029;BME280;45919;51.420;5.454;2022-12-29T00:50:43;99896.81;;;11.34;95.63
59029;BME280;45919;51.420;5.454;2022-12-29T00:51:45;99887.22;;;11.33;95.52
59029;BME280;45919;51.420;5.454;2022-12-29T00:52:47;99878.50;;;11.29;95.46
59029;BME280;45919;51.420;5.454;2022-12-29T00:53:49;99859.38;;;11.19;95.48
59029;BME280;45919;51.420;5.454;2022-12-29T00:54:50;99881.97;;;11.38;95.46
59029;BME280;45919;51.420;5.454;2022-12-29T00:55:52;99889.81;;;11.38;95.04
59029;BME280;45919;51.420;5.454;2022-12-29T00:56:54;99893.31;;;11.40;95.07
59029;BME280;45919;51.420;5.454;2022-12-29T00:57:55;99868.94;;;11.28;94.66
59029;BME280;45919;51.420;5.454;2022-12-29T00:59:05;99878.47;;;11.46;94.94
59029;BME280;45919;51.420;5.454;2022-12-29T01:00:07;99884.56;;;11.42;94.43
59029;BME280;45919;51.420;5.454;2022-12-29T01:01:09;99866.28;;;11.33;94.57
59029;BME280;45919;51.420;5.454;2022-12-29T01:02:11;99878.47;;;11.43;94.08
59029;BME280;45919;51.420;5.454;2022-12-29T01:03:12;99889.78;;;11.44;93.92
59029;BME280;45919;51.420;5.454;2022-12-29T01:04:14;99871.50;;;11.47;93.88
59029;BME280;45919;51.420;5.454;2022-12-29T01:05:16;99867.13;;;11.46;93.83
59029;BME280;45919;51.420;5.454;2022-12-29T01:06:17;99874.94;;;11.47;93.63
59029;BME280;45919;51.420;5.454;2022-12-29T01:07:19;99872.34;;;11.46;93.46
59029;BME280;45919;51.420;5.454;2022-12-29T01:08:20;99865.34;;;11.50;93.01
59029;BME280;45919;51.420;5.454;2022-12-29T01:09:22;99856.66;;;11.51;92.88
59029;BME280;45919;51.420;5.454;2022-12-29T01:10:42;99822.72;;;11.35;92.82
59029;BME280;45919;51.420;5.454;2022-12-29T01:11:44;99861.03;;;11.45;92.51
59029;BME280;45919;51.420;5.454;2022-12-29T01:12:45;99828.84;;;11.26;92.16
59029;BME280;45919;51.420;5.454;2022-12-29T01:13:48;99864.53;;;11.40;92.19
59029;BME280;45919;51.420;5.454;2022-12-29T01:14:50;99863.69;;;11.38;92.19
59029;BME280;45919;51.420;5.454;2022-12-29T01:15:52;99851.50;;;11.30;92.02
59029;BME280;45919;51.420;5.454;2022-12-29T01:16:55;99873.25;;;11.37;92.00
59029;BME280;45919;51.420;5.454;2022-12-29T01:17:57;99867.16;;;11.36;92.05
59029;BME280;45919;51.420;5.454;2022-12-29T01:18:59;99858.47;;;11.36;91.88
59029;BME280;45919;51.420;5.454;2022-12-29T01:20:01;99859.31;;;11.36;91.67
59029;BME280;45919;51.420;5.454;2022-12-29T01:21:05;99868.03;;;11.42;90.78
59029;BME280;45919;51.420;5.454;2022-12-29T01:22:07;99864.53;;;11.41;90.85
59029;BME280;45919;51.420;5.454;2022-12-29T01:23:08;99863.66;;;11.41;91.03
59029;BME280;45919;51.420;5.454;2022-12-29T01:24:10;99856.69;;;11.41;90.99
59029;BME280;45919;51.420;5.454;2022-12-29T01:25:12;99861.03;;;11.42;90.18
59029;BME280;45919;51.420;5.454;2022-12-29T01:26:15;99871.50;;;11.45;90.15
59029;BME280;45919;51.420;5.454;2022-12-29T01:27:17;99859.25;;;11.47;89.68
59029;BME280;45919;51.420;5.454;2022-12-29T01:28:19;99864.50;;;11.47;89.56
59029;BME280;45919;51.420;5.454;2022-12-29T01:29:24;99859.28;;;11.46;89.43
59029;BME280;45919;51.420;5.454;2022-12-29T01:30:26;99862.75;;;11.48;89.36
59029;BME280;45919;51.420;5.454;2022-12-29T01:31:27;99847.94;;;11.48;88.96
59029;BME280;45919;51.420;5.454;2022-12-29T01:32:29;99844.44;;;11.50;89.08
59029;BME280;45919;51.420;5.454;2022-12-29T01:33:30;99839.25;;;11.37;88.42
59029;BME280;45919;51.420;5.454;2022-12-29T01:34:32;99855.75;;;11.52;88.25
59029;BME280;45919;51.420;5.454;2022-12-29T01:35:33;99860.13;;;11.53;87.84
59029;BME280;45919;51.420;5.454;2022-12-29T01:36:35;99859.25;;;11.54;87.60
59029;BME280;45919;51.420;5.454;2022-12-29T01:37:37;99860.97;;;11.53;87.13
59029;BME280;45919;51.420;5.454;2022-12-29T01:38:39;99856.59;;;11.57;87.61
59029;BME280;45919;51.420;5.454;2022-12-29T01:39:41;99765.28;;;11.13;86.75
59029;BME280;45919;51.420;5.454;2022-12-29T01:40:44;99851.38;;;11.60;86.45
59029;BME280;45919;51.420;5.454;2022-12-29T01:41:46;99839.16;;;11.60;86.82
59029;BME280;45919;51.420;5.454;2022-12-29T01:42:48;99847.84;;;11.64;86.25
59029;BME280;45919;51.420;5.454;2022-12-29T01:43:57;99848.69;;;11.69;86.29
59029;BME280;45919;51.420;5.454;2022-12-29T01:45:12;99848.69;;;11.72;86.12
59029;BME280;45919;51.420;5.454;2022-12-29T01:48:36;99840.00;;;11.69;85.26
59029;BME280;45919;51.420;5.454;2022-12-29T01:49:38;99823.44;;;11.65;85.14
59029;BME280;45919;51.420;5.454;2022-12-29T01:50:42;99800.00;;;11.48;85.21
59029;BME280;45919;51.420;5.454;2022-12-29T01:52:02;99845.16;;;11.80;84.88
59029;BME280;45919;51.420;5.454;2022-12-29T01:53:14;99840.81;;;11.76;84.80
59029;BME280;45919;51.420;5.454;2022-12-29T01:54:26;99836.47;;;11.76;85.29
59029;BME280;45919;51.420;5.454;2022-12-29T01:55:32;99838.22;;;11.69;84.70
59029;BME280;45919;51.420;5.454;2022-12-29T01:56:35;99841.69;;;11.73;84.36
59029;BME280;45919;51.420;5.454;2022-12-29T01:57:40;99823.41;;;11.70;84.46
59029;BME280;45919;51.420;5.454;2022-12-29T01:58:48;99838.22;;;11.76;84.71
59029;BME280;45919;51.420;5.454;2022-12-29T02:00:04;99849.50;;;11.86;84.05
59029;BME280;45919;51.420;5.454;2022-12-29T02:01:07;99846.03;;;11.79;83.56
59029;BME280;45919;51.420;5.454;2022-12-29T02:02:09;99848.66;;;11.77;83.98
59029;BME280;45919;51.420;5.454;2022-12-29T02:03:11;99844.31;;;11.75;83.17
59029;BME280;45919;51.420;5.454;2022-12-29T02:04:13;99839.94;;;11.75;83.10
59029;BME280;45919;51.420;5.454;2022-12-29T02:06:56;99855.59;;;11.84;83.13
59029;BME280;45919;51.420;5.454;2022-12-29T02:08:00;99866.94;;;11.80;82.82
59029;BME280;45919;51.420;5.454;2022-12-29T02:09:01;99855.63;;;11.80;83.09
59029;BME280;45919;51.420;5.454;2022-12-29T02:10:04;99860.84;;;11.81;82.64
59029;BME280;45919;51.420;5.454;2022-12-29T02:11:06;99855.63;;;11.81;82.50
59029;BME280;45919;51.420;5.454;2022-12-29T02:12:09;99861.72;;;11.83;83.03
59029;BME280;45919;51.420;5.454;2022-12-29T02:13:11;99851.25;;;11.83;82.56
59029;BME280;45919;51.420;5.454;2022-12-29T02:14:13;99858.22;;;11.84;82.73
59029;BME280;45919;51.420;5.454;2022-12-29T02:15:16;99858.19;;;11.88;82.36
59029;BME280;45919;51.420;5.454;2022-12-29T02:24:34;99859.91;;;11.96;82.75
59029;BME280;45919;51.420;5.454;2022-12-29T02:31:31;99836.38;;;11.90;82.62
59029;BME280;45919;51.420;5.454;2022-12-29T02:34:15;99844.19;;;11.95;83.14
59029;BME280;45919;51.420;5.454;2022-12-29T02:35:37;99843.34;;;11.94;82.92
59029;BME280;45919;51.420;5.454;2022-12-29T02:37:52;99832.94;;;11.79;83.51
59029;BME280;45919;51.420;5.454;2022-12-29T02:40:33;99833.78;;;11.86;82.76
59029;BME280;45919;51.420;5.454;2022-12-29T02:44:17;99821.56;;;11.86;82.60
59029;BME280;45919;51.420;5.454;2022-12-29T02:45:45;99821.56;;;11.86;83.07
59029;BME280;45919;51.420;5.454;2022-12-29T02:48:23;99832.03;;;11.84;83.33
59029;BME280;45919;51.420;5.454;2022-12-29T02:50:59;99823.31;;;11.82;82.90
59029;BME280;45919;51.420;5.454;2022-12-29T02:52:09;99815.56;;;11.75;83.09
59029;BME280;45919;51.420;5.454;2022-12-29T02:53:17;99821.69;;;11.69;83.11
59029;BME280;45919;51.420;5.454;2022-12-29T02:54:40;99820.84;;;11.65;83.09
59029;BME280;45919;51.420;5.454;2022-12-29T02:55:49;99805.97;;;11.72;83.29
59029;BME280;45919;51.420;5.454;2022-12-29T02:56:50;99819.06;;;11.69;82.79
59029;BME280;45919;51.420;5.454;2022-12-29T02:59:15;99812.06;;;11.69;82.99
59029;BME280;45919;51.420;5.454;2022-12-29T03:00:17;99807.72;;;11.70;82.94
59029;BME280;45919;51.420;5.454;2022-12-29T03:10:59;99808.53;;;11.77;83.57
59029;BME280;45919;51.420;5.454;2022-12-29T03:12:15;99801.59;;;11.74;83.96
59029;BME280;45919;51.420;5.454;2022-12-29T03:14:51;99806.00;;;11.69;83.33
59029;BME280;45919;51.420;5.454;2022-12-29T03:16:46;99798.09;;;11.72;83.48
59029;BME280;45919;51.420;5.454;2022-12-29T03:17:55;99806.88;;;11.65;83.29
59029;BME280;45919;51.420;5.454;2022-12-29T03:19:11;99809.47;;;11.66;82.94
59029;BME280;45919;51.420;5.454;2022-12-29T03:20:20;99786.06;;;11.49;83.33
59029;BME280;45919;51.420;5.454;2022-12-29T03:21:37;99805.09;;;11.68;83.51
59029;BME280;45919;51.420;5.454;2022-12-29T03:23:00;99772.13;;;11.42;83.65
59029;BME280;45919;51.420;5.454;2022-12-29T03:24:03;99795.59;;;11.55;83.96
59029;BME280;45919;51.420;5.454;2022-12-29T03:26:14;99803.44;;;11.55;84.18
59029;BME280;45919;51.420;5.454;2022-12-29T03:27:21;99804.31;;;11.54;84.43
59029;BME280;45919;51.420;5.454;2022-12-29T03:28:29;99784.31;;;11.46;84.78
59029;BME280;45919;51.420;5.454;2022-12-29T03:29:38;99794.75;;;11.54;84.59
59029;BME280;45919;51.420;5.454;2022-12-29T03:30:41;99792.13;;;11.50;85.06
59029;BME280;45919;51.420;5.454;2022-12-29T03:31:44;99811.34;;;11.45;85.06
59029;BME280;45919;51.420;5.454;2022-12-29T03:32:57;99799.97;;;11.51;85.01
59029;BME280;45919;51.420;5.454;2022-12-29T03:33:59;99808.72;;;11.44;84.85
59029;BME280;45919;51.420;5.454;2022-12-29T03:35:03;99787.88;;;11.30;85.34
59029;BME280;45919;51.420;5.454;2022-12-29T03:36:09;99753.97;;;11.16;84.77
59029;BME280;45919;51.420;5.454;2022-12-29T03:37:17;99807.00;;;11.43;85.18
59029;BME280;45919;51.420;5.454;2022-12-29T03:38:23;99805.28;;;11.42;85.12
59029;BME280;45919;51.420;5.454;2022-12-29T03:39:27;99809.66;;;11.32;85.10
59029;BME280;45919;51.420;5.454;2022-12-29T03:40:30;99801.81;;;11.38;85.58
59029;BME280;45919;51.420;5.454;2022-12-29T03:41:34;99812.25;;;11.35;85.06
59029;BME280;45919;51.420;5.454;2022-12-29T03:42:36;99816.63;;;11.33;85.23
59029;BME280;45919;51.420;5.454;2022-12-29T03:43:39;99813.16;;;11.29;84.95
59029;BME280;45919;51.420;5.454;2022-12-29T03:44:43;99813.16;;;11.31;84.77
59029;BME280;45919;51.420;5.454;2022-12-29T03:45:45;99811.44;;;11.27;84.91
59029;BME280;45919;51.420;5.454;2022-12-29T03:46:46;99791.41;;;11.19;85.57
59029;BME280;45919;51.420;5.454;2022-12-29T03:47:48;99805.34;;;11.23;85.36
59029;BME280;45919;51.420;5.454;2022-12-29T03:48:50;99807.09;;;11.22;85.28
59029;BME280;45919;51.420;5.454;2022-12-29T03:49:52;99791.44;;;11.18;85.34
59029;BME280;45919;51.420;5.454;2022-12-29T03:50:53;99804.50;;;11.19;85.35
59029;BME280;45919;51.420;5.454;2022-12-29T03:51:55;99799.28;;;11.16;85.69
59029;BME280;45919;51.420;5.454;2022-12-29T03:52:56;99792.31;;;11.14;85.45
59029;BME280;45919;51.420;5.454;2022-12-29T03:53:58;99806.25;;;11.09;85.71
59029;BME280;45919;51.420;5.454;2022-12-29T03:55:00;99808.88;;;11.09;85.52
59029;BME280;45919;51.420;5.454;2022-12-29T03:56:01;99818.47;;;11.09;85.51
59029;BME280;45919;51.420;5.454;2022-12-29T03:57:03;99824.56;;;11.09;85.82
59029;BME280;45919;51.420;5.454;2022-12-29T03:58:05;99815.88;;;11.04;85.71
59029;BME280;45919;51.420;5.454;2022-12-29T03:59:07;99823.69;;;11.04;85.57
59029;BME280;45919;51.420;5.454;2022-12-29T04:00:09;99821.97;;;11.02;85.35
59029;BME280;45919;51.420;5.454;2022-12-29T04:01:11;99825.44;;;11.00;85.32
59029;BME280;45919;51.420;5.454;2022-12-29T04:02:12;99845.47;;;11.06;85.35
59029;BME280;45919;51.420;5.454;2022-12-29T04:03:14;99835.03;;;11.05;84.80
59029;BME280;45919;51.420;5.454;2022-12-29T04:04:16;99838.50;;;11.04;85.62
59029;BME280;45919;51.420;5.454;2022-12-29T04:05:17;99833.31;;;10.97;85.82
59029;BME280;45919;51.420;5.454;2022-12-29T04:06:19;99841.13;;;11.02;86.12
59029;BME280;45919;51.420;5.454;2022-12-29T04:07:20;99809.81;;;10.80;86.05
59029;BME280;45919;51.420;5.454;2022-12-29T04:08:22;99844.66;;;10.98;86.55
59029;BME280;45919;51.420;5.454;2022-12-29T04:09:24;99836.81;;;10.98;86.18
59029;BME280;45919;51.420;5.454;2022-12-29T04:10:25;99828.09;;;10.97;86.50
59029;BME280;45919;51.420;5.454;2022-12-29T04:11:27;99809.81;;;10.88;87.04
59029;BME280;45919;51.420;5.454;2022-12-29T04:12:33;99818.50;;;10.93;87.16
59029;BME280;45919;51.420;5.454;2022-12-29T04:13:34;99832.44;;;10.94;86.46
59029;BME280;45919;51.420;5.454;2022-12-29T04:14:36;99826.34;;;10.93;86.56
59029;BME280;45919;51.420;5.454;2022-12-29T04:15:37;99830.72;;;10.88;86.36
59029;BME280;45919;51.420;5.454;2022-12-29T04:16:39;99814.19;;;10.76;85.71
59029;BME280;45919;51.420;5.454;2022-12-29T04:17:41;99836.81;;;10.82;85.91
59029;BME280;45919;51.420;5.454;2022-12-29T04:18:42;99846.41;;;10.79;86.14
59029;BME280;45919;51.420;5.454;2022-12-29T04:19:44;99842.06;;;10.74;85.99
59029;BME280;45919;51.420;5.454;2022-12-29T04:20:45;99844.69;;;10.70;86.44
59029;BME280;45919;51.420;5.454;2022-12-29T04:22:02;99842.94;;;10.67;86.28
59029;BME280;45919;51.420;5.454;2022-12-29T04:23:05;99852.50;;;10.62;86.53
59029;BME280;45919;51.420;5.454;2022-12-29T04:24:07;99851.66;;;10.57;86.64
59029;BME280;45919;51.420;5.454;2022-12-29T04:25:09;99811.59;;;10.34;86.48
59029;BME280;45919;51.420;5.454;2022-12-29T04:26:11;99849.06;;;10.52;86.24
59029;BME280;45919;51.420;5.454;2022-12-29T04:27:13;99856.84;;;10.47;86.26
59029;BME280;45919;51.420;5.454;2022-12-29T04:28:15;99850.81;;;10.48;86.30
59029;BME280;45919;51.420;5.454;2022-12-29T04:29:17;99857.72;;;10.41;85.99
59029;BME280;45919;51.420;5.454;2022-12-29T04:30:19;99844.66;;;10.38;86.08
59029;BME280;45919;51.420;5.454;2022-12-29T04:31:20;99844.69;;;10.35;86.19
59029;BME280;45919;51.420;5.454;2022-12-29T04:32:22;99840.31;;;10.31;85.81
59029;BME280;45919;51.420;5.454;2022-12-29T04:33:24;99844.66;;;10.27;85.89
59029;BME280;45919;51.420;5.454;2022-12-29T04:34:26;99846.41;;;10.27;85.69
59029;BME280;45919;51.420;5.454;2022-12-29T04:35:28;99849.00;;;10.27;85.09
59029;BME280;45919;51.420;5.454;2022-12-29T04:36:29;99830.75;;;10.24;85.22
59029;BME280;45919;51.420;5.454;2022-12-29T04:37:31;99850.75;;;10.23;84.50
59029;BME280;45919;51.420;5.454;2022-12-29T04:38:33;99858.59;;;10.20;84.78
59029;BME280;45919;51.420;5.454;2022-12-29T04:39:34;99855.09;;;10.16;85.07
59029;BME280;45919;51.420;5.454;2022-12-29T04:40:38;99855.09;;;10.18;84.95
59029;BME280;45919;51.420;5.454;2022-12-29T04:41:40;99856.81;;;10.17;84.53
59029;BME280;45919;51.420;5.454;2022-12-29T04:42:42;99848.13;;;10.22;83.98
59029;BME280;45919;51.420;5.454;2022-12-29T04:43:43;99840.31;;;10.20;83.34
59029;BME280;45919;51.420;5.454;2022-12-29T04:44:45;99861.19;;;10.25;83.15
59029;BME280;45919;51.420;5.454;2022-12-29T04:45:47;99851.63;;;10.14;83.54
59029;BME280;45919;51.420;5.454;2022-12-29T04:46:49;99867.28;;;10.25;82.92
59029;BME280;45919;51.420;5.454;2022-12-29T04:47:50;99872.50;;;10.24;82.51
59029;BME280;45919;51.420;5.454;2022-12-29T04:48:52;99872.50;;;10.27;82.46
59029;BME280;45919;51.420;5.454;2022-12-29T04:49:53;99842.91;;;10.06;82.45
59029;BME280;45919;51.420;5.454;2022-12-29T04:50:55;99871.63;;;10.23;82.26
59029;BME280;45919;51.420;5.454;2022-12-29T04:51:57;99875.97;;;10.21;82.54
59029;BME280;45919;51.420;5.454;2022-12-29T04:52:58;99873.38;;;10.18;82.48
59029;BME280;45919;51.420;5.454;2022-12-29T04:54:00;99879.47;;;10.22;82.50
59029;BME280;45919;51.420;5.454;2022-12-29T04:55:02;99875.09;;;10.17;82.82
59029;BME280;45919;51.420;5.454;2022-12-29T04:56:05;99882.94;;;10.22;82.07
59029;BME280;45919;51.420;5.454;2022-12-29T04:57:06;99879.47;;;10.20;82.63
59029;BME280;45919;51.420;5.454;2022-12-29T04:58:08;99875.09;;;10.16;82.41
59029;BME280;45919;51.420;5.454;2022-12-29T04:59:10;99853.34;;;9.97;82.73
59029;BME280;45919;51.420;5.454;2022-12-29T05:00:12;99885.53;;;10.14;82.62
59029;BME280;45919;51.420;5.454;2022-12-29T05:01:14;99894.25;;;10.12;82.99
59029;BME280;45919;51.420;5.454;2022-12-29T05:02:16;99895.97;;;10.10;83.02
59029;BME280;45919;51.420;5.454;2022-12-29T05:03:18;99886.41;;;10.07;83.52
59029;BME280;45919;51.420;5.454;2022-12-29T05:04:19;99899.44;;;10.05;83.34
59029;BME280;45919;51.420;5.454;2022-12-29T05:05:21;99897.72;;;10.06;83.56
59029;BME280;45919;51.420;5.454;2022-12-29T05:06:23;99902.06;;;10.02;83.75
59029;BME280;45919;51.420;5.454;2022-12-29T05:07:24;99892.47;;;10.00;84.10
59029;BME280;45919;51.420;5.454;2022-12-29T05:08:26;99902.03;;;9.99;84.09
59029;BME280;45919;51.420;5.454;2022-12-29T05:09:28;99892.47;;;9.98;84.20
59029;BME280;45919;51.420;5.454;2022-12-29T05:10:31;99882.00;;;9.84;84.49
59029;BME280;45919;51.420;5.454;2022-12-29T05:11:32;99908.97;;;9.94;84.59
59029;BME280;45919;51.420;5.454;2022-12-29T05:12:35;99896.81;;;9.93;84.86
59029;BME280;45919;51.420;5.454;2022-12-29T05:13:37;99914.19;;;9.92;85.25
59029;BME280;45919;51.420;5.454;2022-12-29T05:14:39;99918.53;;;9.90;85.37
59029;BME280;45919;51.420;5.454;2022-12-29T05:15:40;99902.03;;;9.90;85.53
59029;BME280;45919;51.420;5.454;2022-12-29T05:16:42;99916.81;;;9.94;85.50
59029;BME280;45919;51.420;5.454;2022-12-29T05:17:43;99902.88;;;9.87;85.56
59029;BME280;45919;51.420;5.454;2022-12-29T05:18:45;99915.09;;;10.01;85.54
59029;BME280;45919;51.420;5.454;2022-12-29T05:19:47;99909.88;;;10.04;85.47
59029;BME280;45919;51.420;5.454;2022-12-29T05:20:49;99906.41;;;10.05;85.43
59029;BME280;45919;51.420;5.454;2022-12-29T05:21:50;99917.72;;;10.09;85.63
59029;BME280;45919;51.420;5.454;2022-12-29T05:22:52;99919.47;;;10.13;85.01
59029;BME280;45919;51.420;5.454;2022-12-29T05:23:53;99917.75;;;10.12;85.34
59029;BME280;45919;51.420;5.454;2022-12-29T05:24:55;99910.75;;;10.14;85.31
59029;BME280;45919;51.420;5.454;2022-12-29T05:25:56;99917.72;;;10.16;85.60
59029;BME280;45919;51.420;5.454;2022-12-29T05:26:58;99907.28;;;10.10;85.66
59029;BME280;45919;51.420;5.454;2022-12-29T05:28:00;99902.09;;;10.12;85.16
59029;BME280;45919;51.420;5.454;2022-12-29T05:29:01;99914.28;;;10.21;84.95
59029;BME280;45919;51.420;5.454;2022-12-29T05:30:04;99911.66;;;10.25;84.95
59029;BME280;45919;51.420;5.454;2022-12-29T05:31:06;99898.63;;;10.21;83.81
59029;BME280;45919;51.420;5.454;2022-12-29T05:32:07;99897.75;;;10.34;82.61
59029;BME280;45919;51.420;5.454;2022-12-29T05:33:09;99909.06;;;10.33;83.27
59029;BME280;45919;51.420;5.454;2022-12-29T05:34:13;99903.00;;;10.37;82.81
59029;BME280;45919;51.420;5.454;2022-12-29T05:35:14;99908.22;;;10.37;82.72
59029;BME280;45919;51.420;5.454;2022-12-29T05:36:16;99926.47;;;10.39;82.31
59029;BME280;45919;51.420;5.454;2022-12-29T05:37:18;99899.47;;;10.41;81.94
59029;BME280;45919;51.420;5.454;2022-12-29T05:38:19;99902.97;;;10.42;81.42
59029;BME280;45919;51.420;5.454;2022-12-29T05:39:21;99911.69;;;10.43;81.80
59029;BME280;45919;51.420;5.454;2022-12-29T05:40:22;99917.78;;;10.46;81.11
59029;BME280;45919;51.420;5.454;2022-12-29T05:41:24;99908.25;;;10.48;80.62
59029;BME280;45919;51.420;5.454;2022-12-29T05:42:27;99923.91;;;10.53;80.57
59029;BME280;45919;51.420;5.454;2022-12-29T05:43:28;99927.41;;;10.52;80.98
59029;BME280;45919;51.420;5.454;2022-12-29T05:44:30;99924.75;;;10.50;80.92
59029;BME280;45919;51.420;5.454;2022-12-29T05:45:31;99937.81;;;10.50;80.92
59029;BME280;45919;51.420;5.454;2022-12-29T05:46:33;99931.72;;;10.55;80.80
59029;BME280;45919;51.420;5.454;2022-12-29T05:47:34;99931.72;;;10.56;80.50
59029;BME280;45919;51.420;5.454;2022-12-29T05:48:36;99920.41;;;10.52;80.61
59029;BME280;45919;51.420;5.454;2022-12-29T05:49:38;99936.09;;;10.57;80.61
59029;BME280;45919;51.420;5.454;2022-12-29T05:50:40;99938.72;;;10.56;80.85
59029;BME280;45919;51.420;5.454;2022-12-29T05:51:41;99930.00;;;10.57;80.35
59029;BME280;45919;51.420;5.454;2022-12-29T05:52:43;99936.09;;;10.59;80.31
59029;BME280;45919;51.420;5.454;2022-12-29T05:53:45;99941.31;;;10.59;80.63
59029;BME280;45919;51.420;5.454;2022-12-29T05:54:46;99947.44;;;10.59;80.47
59029;BME280;45919;51.420;5.454;2022-12-29T05:55:48;99945.66;;;10.61;80.32
59029;BME280;45919;51.420;5.454;2022-12-29T05:56:50;99931.75;;;10.61;80.59
59029;BME280;45919;51.420;5.454;2022-12-29T05:57:51;99937.84;;;10.66;80.39
59029;BME280;45919;51.420;5.454;2022-12-29T05:58:53;99941.34;;;10.67;79.81
59029;BME280;45919;51.420;5.454;2022-12-29T05:59:54;99941.31;;;10.65;80.20
59029;BME280;45919;51.420;5.454;2022-12-29T06:00:56;99948.28;;;10.69;80.24
59029;BME280;45919;51.420;5.454;2022-12-29T06:01:58;99940.44;;;10.69;79.75
59029;BME280;45919;51.420;5.454;2022-12-29T06:02:59;99947.41;;;10.73;79.28
59029;BME280;45919;51.420;5.454;2022-12-29T06:04:01;99938.72;;;10.67;78.61
59029;BME280;45919;51.420;5.454;2022-12-29T06:05:03;99953.50;;;10.77;78.37
59029;BME280;45919;51.420;5.454;2022-12-29T06:06:05;99947.41;;;10.76;78.00
59029;BME280;45919;51.420;5.454;2022-12-29T06:07:06;99951.78;;;10.76;78.25
59029;BME280;45919;51.420;5.454;2022-12-29T06:08:08;99936.97;;;10.76;77.92
59029;BME280;45919;51.420;5.454;2022-12-29T06:09:10;99950.03;;;10.75;78.04
59029;BME280;45919;51.420;5.454;2022-12-29T06:10:12;99946.56;;;10.81;77.92
59029;BME280;45919;51.420;5.454;2022-12-29T06:11:13;99943.94;;;10.81;77.61
59029;BME280;45919;51.420;5.454;2022-12-29T06:12:15;99943.06;;;10.82;77.40
59029;BME280;45919;51.420;5.454;2022-12-29T06:13:17;99927.38;;;10.80;77.57
59029;BME280;45919;51.420;5.454;2022-12-29T06:14:19;99943.94;;;10.82;77.81
59029;BME280;45919;51.420;5.454;2022-12-29T06:15:21;99936.09;;;10.81;76.96
59029;BME280;45919;51.420;5.454;2022-12-29T06:16:23;99938.72;;;10.82;77.44
59029;BME280;45919;51.420;5.454;2022-12-29T06:17:24;99937.84;;;10.83;77.30
59029;BME280;45919;51.420;5.454;2022-12-29T06:18:26;99940.47;;;10.83;76.69
59029;BME280;45919;51.420;5.454;2022-12-29T06:19:27;99936.09;;;10.85;76.34
59029;BME280;45919;51.420;5.454;2022-12-29T06:20:29;99943.06;;;10.88;75.98
59029;BME280;45919;51.420;5.454;2022-12-29T06:21:31;99936.97;;;10.87;76.26
59029;BME280;45919;51.420;5.454;2022-12-29T06:22:32;99933.50;;;10.87;75.07
59029;BME280;45919;51.420;5.454;2022-12-29T06:23:34;99943.06;;;10.91;75.02